Terminal Aerodrome Forecast
Issued by NWS Lubbock, TX

Home | Current Version | Previous Version | Text Only | Print | Product List | Glossary On
Versions: 1 2 3 4 5 6 7 8 9 10 11 12 13 14 15 16 17 18 19 20 21 22 23
000
FTUS44 KLUB 222345
TAFLBB
TAF
KLBB 222345Z 2300/2324 13010KT P6SM OVC007
     FM230200 15010KT 5SM BR OVC004 PROB30 2309/2315 3SM TSRA BKN004
      OVC015CB
     FM231700 17015KT P6SM SCT010 BKN035=

USA.gov is the U.S. government's official web portal to all federal, state and local government web resources and services.